Latest Weather Observations for Hughenden

IDQ60801

Issued at 8:32 am EST Sunday 1 February 2015 (issued every 30 minutes, with the page automatically refreshed every 10 minutes)

About weather observations | Map of weather stations | Latest weather observations for QLD | Other Formats
Station Details ID: 030022 Name: HUGHENDEN AIRPORT Lat: -20.82 Lon: 144.23 Height: 316.4 m
Data from the previous 72 hours. | See also: Recent months at Hughenden
Date/Time
EST
Temp
°C
App
Temp
°C
Dew
Point
Rel
Hum
%
Delta-T
°C
Wind Press
QNH
hPa
Press
MSL
hPa
Rain
since 9 am
mm
Dir
 
Spd
km/h
Gust
km/h
Spd
kts
Gust
kts
01/08:30am 31.2 29.2 17.5 44 8.9 N 24 32 13 17 1008.0 1005.6 0.0
01/08:00am 30.2 29.5 18.6 49 7.6 N 20 28 11 15 1007.9 1005.5 0.0
01/07:30am 29.2 29.3 18.3 51 7.1 N 15 24 8 13 1007.7 1005.3 0.0
01/07:00am 27.5 27.7 17.7 55 6.3 NE 13 17 7 9 1007.5 1005.1 0.0
01/06:30am 26.2 26.4 17.6 59 5.5 NE 13 15 7 8 1007.2 1004.8 0.0
01/06:00am 26.0 26.6 17.6 60 5.3 NE 11 13 6 7 1006.5 1004.1 0.0
01/05:30am 26.3 26.8 17.4 58 5.6 NE 11 13 6 7 1006.2 1003.8 0.0
01/05:00am 26.5 27.3 17.3 57 5.8 NE 9 11 5 6 1006.0 1003.6 0.0
01/04:30am 27.0 27.8 17.2 55 6.2 NE 9 11 5 6 1006.0 1003.6 0.0
01/04:00am 27.3 28.1 17.2 54 6.4 NNE 9 11 5 6 1005.8 1003.4 0.0
01/03:30am 27.9 28.2 17.1 51 6.9 NE 11 13 6 7 1005.7 1003.3 0.0
01/03:00am 28.8 28.6 16.7 48 7.7 NE 13 17 7 9 1005.7 1003.3 0.0
01/02:30am 29.5 28.5 16.7 46 8.1 NE 17 24 9 13 1005.9 1003.5 0.0
01/02:00am 29.9 28.4 16.3 43 8.6 NNE 19 26 10 14 1006.1 1003.7 0.0
01/01:30am 29.7 28.7 14.7 40 9.2 NE 13 19 7 10 1006.1 1003.7 0.0
01/01:00am 29.6 28.2 14.6 40 9.2 NE 15 17 8 9 1006.5 1004.1 0.0
01/12:30am 29.5 29.5 15.2 41 8.9 NE 9 15 5 8 1006.6 1004.2 0.0
01/12:00am 29.6 30.0 15.3 41 8.9 NE 7 9 4 5 1007.0 1004.6 0.0
 
Date/Time
EST
Temp
°C
App
Temp
°C
Dew
Point
Rel
Hum
%
Delta-T
°C
Wind Press
QNH
hPa
Press
MSL
hPa
Rain
since 9 am
mm
Dir
 
Spd
km/h
Gust
km/h
Spd
kts
Gust
kts
31/11:30pm 29.9 30.3 15.2 41 9.1 NE 7 9 4 5 1007.3 1004.9 0.0
31/11:00pm 30.0 30.6 15.7 42 9.0 NNE 7 9 4 5 1007.4 1005.0 0.0
31/10:30pm 30.0 29.6 15.3 41 9.1 NE 11 15 6 8 1007.5 1005.1 0.0
31/10:00pm 29.4 29.0 15.1 41 8.9 SSE 11 13 6 7 1007.4 1005.0 0.0
31/09:30pm 30.5 30.3 14.6 38 9.8 SE 9 13 5 7 1007.2 1004.8 0.0
31/09:00pm 31.0 30.8 14.6 37 10.2 SE 9 11 5 6 1007.0 1004.6 0.0
31/08:30pm 31.8 30.6 14.0 34 10.9 SE 13 17 7 9 1006.6 1004.2 0.0
31/08:00pm 32.2 30.6 13.9 33 11.3 SE 15 19 8 10 1006.2 1003.8 0.0
31/07:30pm 32.6 31.0 13.8 32 11.6 SSE 15 19 8 10 1005.7 1003.3 0.0
31/07:00pm 33.9 32.2 12.3 27 13.1 S 13 26 7 14 1005.3 1002.9 0.0
31/06:30pm 35.4 33.1 10.4 22 14.8 SSW 13 17 7 9 1004.9 1002.5 0.0
31/06:00pm 36.6 33.6 10.7 21 15.5 SW 17 20 9 11 1004.5 1002.1 0.0
31/05:30pm 36.3 34.2 9.8 20 15.6 SSW 11 19 6 10 1004.3 1001.9 0.0
31/05:00pm 37.5 35.7 10.7 20 16.1 SW 11 19 6 10 1004.2 1001.8 0.0
31/04:30pm 37.7 36.1 11.6 21 15.8 SSW 11 19 6 10 1004.3 1001.9 0.0
31/04:00pm 36.0 33.8 10.9 22 15.0 WSW 13 20 7 11 1004.3 1001.9 0.0
31/03:30pm 36.0 34.2 10.9 22 15.0 WNW 11 19 6 10 1004.7 1002.3 0.0
31/03:00pm 37.2 35.1 11.2 21 15.7 SW 13 24 7 13 1005.2 1002.8 0.0
31/02:30pm 36.9 35.5 11.0 21 15.5 WSW 9 15 5 8 1005.4 1003.0 0.0
31/02:00pm 36.8 35.2 12.9 24 14.7 S 13 19 7 10 1005.8 1003.4 0.0
31/01:30pm 36.0 35.0 13.5 26 13.9 NW 11 17 6 9 1006.2 1003.8 0.0
31/01:00pm 35.7 35.0 13.2 26 13.9 SSW 9 13 5 7 1006.6 1004.2 0.0
31/12:30pm 35.3 34.9 14.0 28 13.2 SSW 9 15 5 8 1007.2 1004.8 0.0
31/12:00pm 35.6 35.6 14.3 28 13.3 ENE 7 15 4 8 1007.6 1005.2 0.0
31/11:30am 34.5 34.2 15.4 32 12.1 WSW 11 15 6 8 1008.1 1005.7 0.0
31/11:00am 33.4 32.5 14.9 32 11.6 W 13 20 7 11 1008.5 1006.1 0.0
31/10:30am 32.8 31.5 14.9 34 11.2 W 15 20 8 11 1008.6 1006.2 0.0
31/10:00am 32.1 31.3 17.2 41 9.6 WNW 17 26 9 14 1008.6 1006.2 0.0
31/09:30am 31.3 31.1 16.8 41 9.3 NW 13 20 7 11 1008.7 1006.3 0.0
31/09:00am 30.5 30.8 17.9 47 8.2 NNW 13 20 7 11 1008.8 1006.4 3.8
31/08:30am 29.4 30.6 18.2 51 7.3 NNE 9 13 5 7 1008.7 1006.3 3.8
31/08:00am 27.5 29.0 18.8 59 5.7 NE 9 13 5 7 1008.7 1006.3 3.8
31/07:30am 26.5 27.5 18.6 62 5.1 ENE 11 15 6 8 1008.3 1005.9 3.8
31/07:00am 24.7 26.4 19.3 72 3.5 ENE 9 11 5 6 1008.3 1005.9 3.8
31/06:30am 22.8 24.9 19.0 79 2.4 N 6 7 3 4 1008.0 1005.6 3.8
31/06:00am 23.2 24.5 18.5 75 3.0 NE 9 11 5 6 1007.5 1005.1 3.6
31/05:30am 22.9 24.7 18.7 77 2.7 E 7 9 4 5 1007.0 1004.6 3.6
31/05:00am 23.2 25.0 18.7 76 2.9 NE 7 9 4 5 1006.8 1004.3 3.6
31/04:30am 23.6 25.5 18.9 75 3.0 NE 7 9 4 5 1006.5 1004.1 3.6
31/04:00am 24.0 25.7 19.3 75 3.1 ENE 9 9 5 5 1006.4 1004.0 3.6
31/03:30am 23.7 25.3 19.2 76 2.9 ENE 9 11 5 6 1006.4 1004.0 3.6
31/03:00am 23.7 25.5 19.6 78 2.7 ENE 9 11 5 6 1006.5 1004.1 3.6
31/02:30am 23.2 25.2 19.1 78 2.6 E 7 9 4 5 1006.8 1004.3 3.6
31/02:00am 23.3 25.1 18.8 76 2.9 ENE 7 9 4 5 1006.8 1004.3 3.6
31/01:30am 23.9 26.4 19.0 74 3.2 NE 4 9 2 5 1006.9 1004.4 3.6
31/01:00am 23.6 26.0 18.9 75 3.0 ENE 4 6 2 3 1007.1 1004.7 3.6
31/12:30am 24.2 25.5 18.4 70 3.7 NE 9 11 5 6 1007.1 1004.7 3.6
31/12:00am 24.7 25.5 18.2 67 4.2 NE 11 11 6 6 1007.3 1004.9 3.6
 
Date/Time
EST
Temp
°C
App
Temp
°C
Dew
Point
Rel
Hum
%
Delta-T
°C
Wind Press
QNH
hPa
Press
MSL
hPa
Rain
since 9 am
mm
Dir
 
Spd
km/h
Gust
km/h
Spd
kts
Gust
kts
30/11:30pm 25.0 25.8 18.2 66 4.3 NNE 11 15 6 8 1007.4 1005.0 3.6
30/11:00pm 25.8 25.1 18.2 63 4.9 NE 19 24 10 13 1007.3 1004.9 3.6
30/10:30pm 26.1 25.4 18.2 61 5.1 NE 19 24 10 13 1007.3 1004.9 3.6
30/10:00pm 26.9 26.4 17.9 57 5.8 E 17 24 9 13 1007.2 1004.8 3.6
30/09:30pm 26.7 27.4 18.8 62 5.1 ENE 13 15 7 8 1007.0 1004.6 3.6
30/09:00pm 27.4 27.4 18.1 57 6.0 NE 15 19 8 10 1006.5 1004.1 3.6
30/08:30pm 28.4 28.6 17.6 52 6.9 ENE 13 17 7 9 1006.2 1003.8 3.6
30/08:00pm 27.7 30.5 20.5 65 4.8 N 6 11 3 6 1006.0 1003.6 3.6
30/07:30pm 27.7 30.1 20.0 63 5.1 ESE 7 9 4 5 1005.6 1003.2 3.6
30/07:00pm 28.2 28.4 17.7 53 6.7 ESE 13 17 7 9 1005.3 1002.9 3.6
30/06:30pm 28.3 29.3 19.5 59 5.8 E 13 17 7 9 1005.1 1002.7 3.6
30/06:00pm 28.6 28.5 17.8 52 7.0 SSE 15 19 8 10 1005.3 1002.9 3.6
30/05:30pm 28.6 30.5 19.8 59 5.8 ENE 9 13 5 7 1005.0 1002.6 3.6
30/05:00pm 27.0 28.1 18.8 60 5.3 E 11 15 6 8 1005.2 1002.8 3.6
30/04:30pm 27.8 28.1 20.4 64 4.9 NW 19 26 10 14 1004.5 1002.1 3.6
30/04:00pm 27.4 26.8 19.7 63 5.1 NNW 22 30 12 16 1004.1 1001.7 3.6
30/03:38pm 27.9 26.4 16.2 49 7.3 WNW 19 35 10 19 1004.3 1001.9 0.4
30/03:30pm 33.5 32.4 13.0 29 12.5 ESE 11 17 6 9 1004.1 1001.7 0.0
30/03:00pm 35.8 33.6 12.1 24 14.4 E 15 24 8 13 1004.2 1001.8 0.0
30/02:30pm 36.4 35.7 13.2 25 14.3 NE 9 17 5 9 1004.5 1002.1 0.0
30/02:00pm 34.7 33.3 13.5 28 13.1 SSE 13 20 7 11 1004.9 1002.5 0.0
30/01:46pm 33.8 33.4 17.1 37 10.8 SSE 15 35 8 19 1005.2 1002.8 0.0
30/01:30pm 31.7 32.9 19.0 47 8.4 S 11 17 6 9 1005.6 1003.2 0.0
30/01:00pm 33.9 32.7 13.9 30 12.4 E 13 20 7 11 1005.7 1003.3 0.0
30/12:30pm 35.5 34.2 14.7 28 13.1 ESE 15 22 8 12 1006.2 1003.8 0.0
30/12:00pm 35.1 34.6 14.9 29 12.7 E 11 20 6 11 1006.5 1004.1 0.0
30/11:30am 34.9 34.9 18.0 36 11.1 E 15 30 8 16 1007.0 1004.6 0.0
30/11:00am 33.0 32.6 18.0 41 9.8 E 17 26 9 14 1007.3 1004.9 0.0
30/10:30am 32.5 32.8 18.7 44 9.1 E 15 24 8 13 1007.5 1005.1 0.0
30/10:00am 32.0 32.4 18.9 45 8.7 E 15 22 8 12 1007.6 1005.2 0.0
30/09:30am 31.4 31.5 19.1 48 8.1 ENE 17 22 9 12 1007.6 1005.2 0.0
30/09:00am 30.6 30.8 19.3 51 7.5 ENE 17 22 9 12 1007.5 1005.1 0.0
30/08:30am 29.6 29.2 19.3 54 6.8 NE 20 28 11 15 1007.5 1005.1 0.0
30/08:00am 28.7 28.3 19.3 56 6.2 ENE 20 28 11 15 1007.3 1004.9 0.0
30/07:30am 28.3 29.3 19.5 59 5.8 ENE 13 22 7 12 1007.1 1004.7 0.0
30/07:00am 27.3 29.4 19.4 62 5.2 E 7 13 4 7 1007.0 1004.6 0.0
30/06:30am 25.4 27.4 19.1 68 4.1 E 7 7 4 4 1006.5 1004.1 0.0
30/06:00am 24.8 26.5 18.0 66 4.3 E 6 9 3 5 1006.1 1003.7 0.0
30/05:30am 25.2 26.0 18.2 65 4.5 E 11 13 6 7 1005.9 1003.5 0.0
30/05:00am 25.8 26.1 18.0 62 5.0 ENE 13 17 7 9 1005.6 1003.2 0.0
30/04:30am 26.5 26.8 17.8 58 5.6 ENE 13 17 7 9 1005.4 1003.0 0.0
30/04:00am 26.8 27.4 17.8 57 5.8 ENE 11 15 6 8 1005.3 1002.9 0.0
30/03:30am 27.2 26.7 17.9 56 6.0 ENE 17 20 9 11 1005.1 1002.7 0.0
30/03:00am 27.6 27.0 17.5 54 6.5 E 17 22 9 12 1004.9 1002.5 0.0
30/02:30am 27.8 27.7 17.0 51 6.8 E 13 20 7 11 1005.0 1002.6 0.0
30/02:00am 28.3 27.5 17.2 51 7.1 E 17 22 9 12 1005.0 1002.6 0.0
30/01:30am 28.6 27.3 17.2 50 7.3 ENE 20 32 11 17 1005.2 1002.8 0.0
30/01:00am 28.8 27.5 16.7 48 7.7 E 19 24 10 13 1005.4 1003.0 0.0
30/12:30am 29.1 28.1 16.6 46 7.9 E 17 22 9 12 1005.7 1003.3 0.0
30/12:00am 28.2 28.2 17.1 51 7.1 ESE 13 17 7 9 1006.1 1003.7 0.0
 
Date/Time
EST
Temp
°C
App
Temp
°C
Dew
Point
Rel
Hum
%
Delta-T
°C
Wind Press
QNH
hPa
Press
MSL
hPa
Rain
since 9 am
mm
Dir
 
Spd
km/h
Gust
km/h
Spd
kts
Gust
kts
29/11:30pm 27.1 26.3 15.1 47 7.4 ESE 13 15 7 8 1006.3 1003.9 0.0
29/11:00pm 26.9 26.8 15.0 48 7.3 SE 9 11 5 6 1006.4 1004.0 0.0
29/10:30pm 27.7 28.1 15.4 47 7.6 ESE 7 7 4 4 1006.5 1004.1 0.0
29/10:00pm 27.5 28.0 15.5 48 7.4 ESE 7 11 4 6 1006.3 1003.9 0.0
29/09:30pm 27.7 28.4 15.7 48 7.4 SSW 6 9 3 5 1005.8 1003.4 0.0
29/09:00pm 28.4 28.9 15.0 44 8.3 SE 6 6 3 3 1005.5 1003.1 0.0
29/08:30pm 28.5 28.3 14.7 43 8.5 SSE 9 11 5 6 1005.1 1002.7 0.0
29/08:00pm 29.6 28.2 14.6 40 9.2 SSE 15 20 8 11 1004.8 1002.4 0.0
29/07:30pm 30.0 28.5 14.1 37 9.7 SSE 15 20 8 11 1004.4 1002.0 0.0
29/07:00pm 30.7 28.6 15.2 39 9.7 SSE 20 30 11 16 1004.1 1001.7 0.0
29/06:30pm 31.7 27.6 14.8 36 10.5 S 30 46 16 25 1003.8 1001.3 0.0
29/06:20pm 32.7 28.8 14.3 32 11.4 S 28 41 15 22 1003.6 1001.1 0.0
29/06:00pm 34.3 31.9 12.6 27 13.2 S 17 20 9 11 1003.2 1000.8 0.0
29/05:30pm 34.2 31.2 12.5 27 13.2 S 20 26 11 14 1002.9 1000.5 0.0
29/05:00pm 35.5 32.7 13.1 26 13.8 SSE 20 30 11 16 1002.7 1000.3 0.0
29/04:30pm 35.2 32.3 10.9 23 14.4 S 17 24 9 13 1002.6 1000.2 0.0
29/04:00pm 36.9 35.9 10.2 20 15.9 NE 6 11 3 6 1002.5 1000.1 0.0
29/03:30pm 36.4 34.1 10.6 21 15.3 S 13 19 7 10 1002.7 1000.3 0.0
29/03:00pm 36.2 35.2 12.4 24 14.6 SE 9 17 5 9 1003.0 1000.6 0.0
29/02:30pm 34.6 33.6 12.3 26 13.5 SSW 9 19 5 10 1003.2 1000.8 0.0
29/02:00pm 36.2 35.4 13.0 24 14.3 ESE 9 22 5 12 1003.3 1000.9 0.0
29/01:30pm 35.2 33.6 12.8 26 13.7 E 13 20 7 11 1003.8 1001.3 0.0
29/01:00pm 35.2 33.6 12.8 26 13.7 S 13 26 7 14 1004.1 1001.7 0.0
29/12:30pm 34.6 33.2 13.4 28 13.0 SE 13 20 7 11 1004.3 1001.9 0.0
29/12:00pm 34.3 34.1 13.7 29 12.8 E 7 19 4 10 1004.5 1002.1 0.0
29/11:30am 33.2 31.0 13.3 30 12.2 E 17 26 9 14 1004.9 1002.5 0.0
29/11:00am 32.3 29.9 12.5 30 11.9 E 17 24 9 13 1005.2 1002.8 0.0
29/10:30am 30.8 28.8 12.7 33 10.9 SE 15 20 8 11 1005.3 1002.9 0.0
29/10:00am 30.4 29.3 11.9 32 11.0 E 9 15 5 8 1005.5 1003.1 0.0
29/09:30am 29.1 27.0 11.2 33 10.4 ESE 13 19 7 10 1005.5 1003.1 0.0
29/09:00am 28.3 26.1 10.9 34 10.1 E 13 17 7 9 1005.5 1003.1 0.0

Other Formats:

Comma delimited format used in spreadsheet applications
http://www.bom.gov.au/fwo/IDQ60801/IDQ60801.94343.axf

JavaScript Object Notation format (JSON) in row-major order
http://www.bom.gov.au/fwo/IDQ60801/IDQ60801.94343.json